createdAt,value
2022-10-23T00:02:43.213Z,7.45
2022-10-23T00:07:50.177Z,6.88
2022-10-23T00:12:53.833Z,6.60
2022-10-23T00:17:56.388Z,6.85
2022-10-23T00:22:58.995Z,7.10
2022-10-23T00:28:01.599Z,7.82
2022-10-23T00:33:04.164Z,6.93
2022-10-23T00:38:07.307Z,7.10
2022-10-23T00:43:21.682Z,7.70
2022-10-23T00:48:26.829Z,7.15
2022-10-23T00:53:29.464Z,7.88
2022-10-23T00:58:32.261Z,7.60
2022-10-23T01:03:35.312Z,7.32
2022-10-23T01:08:43.817Z,7.15
2022-10-23T01:14:12.257Z,7.00
2022-10-23T01:19:21.546Z,7.00
2022-10-23T01:24:33.217Z,7.72
2022-10-23T01:29:49.883Z,7.22
2022-10-23T01:35:16.340Z,7.38
2022-10-23T01:40:37.799Z,7.30
2022-10-23T01:45:44.616Z,7.77
2022-10-23T01:50:55.686Z,8.68
2022-10-23T01:56:01.328Z,8.35
2022-10-23T02:01:07.224Z,8.55
2022-10-23T02:06:21.801Z,8.57
2022-10-23T02:11:24.618Z,9.13
2022-10-23T02:16:40.678Z,9.00
2022-10-23T02:21:52.680Z,8.35
2022-10-23T02:32:02.121Z,8.55
2022-10-23T02:37:04.878Z,9.00
2022-10-23T02:42:22.725Z,10.32
2022-10-23T02:47:41.123Z,9.65
2022-10-23T02:53:14.469Z,11.20
2022-10-23T02:58:28.241Z,10.85
2022-10-23T03:03:36.020Z,10.55
2022-10-23T03:08:43.379Z,10.43
2022-10-23T03:13:46.021Z,11.55
2022-10-23T03:18:48.916Z,11.23
2022-10-23T03:23:51.597Z,12.13
2022-10-23T03:29:00.453Z,12.07
2022-10-23T03:34:05.186Z,12.02
2022-10-23T03:39:10.662Z,12.27
2022-10-23T03:44:13.447Z,12.63
2022-10-23T03:49:19.720Z,12.35
2022-10-23T03:54:25.117Z,12.88
2022-10-23T03:59:28.748Z,13.65
2022-10-23T04:04:31.453Z,14.15
2022-10-23T04:09:35.248Z,13.73
2022-10-23T04:14:39.311Z,13.70
2022-10-23T04:19:41.865Z,13.73
2022-10-23T04:24:46.806Z,14.45
2022-10-23T04:29:55.602Z,13.65
2022-10-23T04:35:00.952Z,13.93
2022-10-23T04:40:06.415Z,12.43
2022-10-23T04:45:11.552Z,13.43
2022-10-23T04:50:17.246Z,13.95
2022-10-23T04:55:38.271Z,13.73
2022-10-23T05:00:55.564Z,13.75
2022-10-23T05:06:01.422Z,14.23
2022-10-23T05:11:18.958Z,13.20
2022-10-23T05:16:50.473Z,13.13
2022-10-23T05:21:56.088Z,13.13
2022-10-23T05:27:08.648Z,14.00
2022-10-23T05:32:16.615Z,13.82
2022-10-23T05:37:19.845Z,14.65
2022-10-23T05:42:23.208Z,13.30
2022-10-23T05:47:27.626Z,13.35
2022-10-23T05:52:36.082Z,13.57
2022-10-23T05:57:51.422Z,13.88
2022-10-23T06:03:03.837Z,13.10
2022-10-23T06:08:14.666Z,12.38
2022-10-23T06:13:17.265Z,11.88
2022-10-23T06:18:20.001Z,11.00
2022-10-23T06:23:39.263Z,12.57
2022-10-23T06:29:10.968Z,11.55
2022-10-23T06:34:16.111Z,13.13
2022-10-23T06:39:18.634Z,12.40
2022-10-23T06:44:41.470Z,11.98
2022-10-23T06:49:45.216Z,12.25
2022-10-23T06:54:48.022Z,12.45
2022-10-23T06:59:57.243Z,13.05
2022-10-23T07:05:00.868Z,12.93
2022-10-23T07:10:05.922Z,12.68
2022-10-23T07:15:18.974Z,12.02
2022-10-23T07:20:21.940Z,13.13
2022-10-23T07:25:26.590Z,11.32
2022-10-23T07:30:29.591Z,12.93
2022-10-23T07:35:35.575Z,13.55
2022-10-23T07:40:50.133Z,13.13
2022-10-23T07:45:54.204Z,13.18
2022-10-23T07:51:14.535Z,12.35
2022-10-23T07:56:26.290Z,13.32
2022-10-23T08:01:56.844Z,13.60
2022-10-23T08:07:06.027Z,12.60
2022-10-23T08:12:14.983Z,14.00
2022-10-23T08:17:17.584Z,14.38
2022-10-23T08:22:40.546Z,13.65
2022-10-23T08:27:44.209Z,13.77
2022-10-23T08:32:47.196Z,14.02
2022-10-23T08:37:51.016Z,14.30
2022-10-23T08:43:20.724Z,15.18
2022-10-23T08:48:50.827Z,14.88
2022-10-23T08:54:19.867Z,16.77
2022-10-23T08:59:38.052Z,15.57
2022-10-23T09:04:43.820Z,16.40
2022-10-23T09:10:15.855Z,16.70
2022-10-23T09:15:31.316Z,17.33
2022-10-23T09:20:35.549Z,15.73
2022-10-23T09:25:40.032Z,18.27
2022-10-23T09:30:43.171Z,15.95
2022-10-23T09:35:56.888Z,18.05
2022-10-23T09:41:06.208Z,17.38
2022-10-23T09:46:10.864Z,16.73
2022-10-23T09:51:21.007Z,18.20
2022-10-23T09:56:40.536Z,16.25
2022-10-23T10:02:01.572Z,17.55
2022-10-23T10:07:31.187Z,16.02
2022-10-23T10:12:37.776Z,17.70
2022-10-23T10:17:40.424Z,16.85
2022-10-23T10:22:59.027Z,17.20
2022-10-23T10:28:33.997Z,16.95
2022-10-23T10:34:07.538Z,16.95
2022-10-23T10:39:32.300Z,17.83
2022-10-23T10:44:43.698Z,17.80
2022-10-23T10:50:00.640Z,17.17
2022-10-23T10:55:40.843Z,18.92
2022-10-23T11:00:46.719Z,17.95
2022-10-23T11:05:51.799Z,18.23
2022-10-23T11:11:04.329Z,19.33
2022-10-23T11:16:24.923Z,20.48
2022-10-23T11:21:35.699Z,19.30
2022-10-23T11:26:38.431Z,21.05
2022-10-23T11:31:47.052Z,21.80
2022-10-23T11:36:58.649Z,20.17
2022-10-23T11:42:15.780Z,21.15
2022-10-23T11:47:40.021Z,21.55
2022-10-23T11:53:13.033Z,20.95
2022-10-23T11:58:16.077Z,20.27
2022-10-23T12:03:24.611Z,18.75
2022-10-23T12:08:30.785Z,19.98
2022-10-23T12:13:39.418Z,20.52
2022-10-23T12:18:53.484Z,22.05
2022-10-23T12:24:24.964Z,20.58
2022-10-23T12:29:43.930Z,21.92
2022-10-23T12:35:10.952Z,20.77
2022-10-23T12:40:13.701Z,24.63
2022-10-23T12:45:20.636Z,21.60
2022-10-23T12:50:30.305Z,23.15
2022-10-23T12:55:56.839Z,22.55
2022-10-23T13:01:02.474Z,23.63
2022-10-23T13:06:05.389Z,23.98
2022-10-23T13:11:13.777Z,25.80
2022-10-23T13:16:22.692Z,25.40
2022-10-23T13:21:28.807Z,24.88
2022-10-23T13:26:42.915Z,25.48
2022-10-23T13:31:45.461Z,24.77
2022-10-23T13:37:25.028Z,27.00
2022-10-23T13:42:27.905Z,24.75
2022-10-23T13:47:30.476Z,27.08
2022-10-23T13:52:33.066Z,27.08
2022-10-23T13:57:35.614Z,26.52
2022-10-23T14:02:38.385Z,24.95
2022-10-23T14:07:41.135Z,26.00
2022-10-23T14:12:44.745Z,25.00
2022-10-23T14:17:47.858Z,22.75
2022-10-23T14:22:50.523Z,23.92
2022-10-23T14:27:53.100Z,23.00
2022-10-23T14:32:55.737Z,22.15
2022-10-23T14:37:58.711Z,23.38
2022-10-23T14:43:01.446Z,23.58
2022-10-23T14:48:04.183Z,22.83
2022-10-23T14:53:06.776Z,21.70
2022-10-23T14:58:09.554Z,21.60
2022-10-23T15:03:12.147Z,21.52
2022-10-23T15:08:14.707Z,20.90
2022-10-23T15:13:17.509Z,21.45
2022-10-23T15:18:21.621Z,19.52
2022-10-23T15:23:26.125Z,20.42
2022-10-23T15:28:29.690Z,18.83
2022-10-23T15:33:32.272Z,19.38
2022-10-23T15:38:34.836Z,18.80
2022-10-23T15:43:37.466Z,18.83
2022-10-23T15:48:40.203Z,17.98
2022-10-23T15:53:42.824Z,17.60
2022-10-23T15:58:45.414Z,17.20
2022-10-23T16:03:48.168Z,17.02
2022-10-23T16:08:50.961Z,16.15
2022-10-23T16:13:58.093Z,15.30
2022-10-23T16:19:02.882Z,15.23
2022-10-23T16:24:08.197Z,16.58
2022-10-23T16:29:11.697Z,15.20
2022-10-23T16:34:14.356Z,14.52
2022-10-23T16:39:19.066Z,15.32
2022-10-23T16:44:40.300Z,14.27
2022-10-23T16:49:43.499Z,15.30
2022-10-23T16:54:46.126Z,13.85
2022-10-23T16:59:48.750Z,13.98
2022-10-23T17:04:51.336Z,12.48
2022-10-23T17:09:54.145Z,12.95
2022-10-23T17:14:56.978Z,12.73
2022-10-23T17:19:59.697Z,11.85
2022-10-23T17:25:02.354Z,12.00
2022-10-23T17:30:09.292Z,11.52
2022-10-23T17:35:15.259Z,11.90
2022-10-23T17:40:21.471Z,11.75
2022-10-23T17:45:26.789Z,11.18
2022-10-23T17:50:29.459Z,11.00
2022-10-23T17:55:32.033Z,12.45
2022-10-23T18:00:38.271Z,10.73
2022-10-23T18:05:40.860Z,10.73
2022-10-23T18:10:43.427Z,10.07
2022-10-23T18:15:46.551Z,9.57
2022-10-23T18:20:49.127Z,9.02
2022-10-23T18:25:51.761Z,9.25
2022-10-23T18:30:56.873Z,10.88
2022-10-23T18:35:59.882Z,10.18
2022-10-23T18:41:02.448Z,8.75
2022-10-23T18:46:05.815Z,9.23
2022-10-23T18:51:17.419Z,9.25
2022-10-23T18:56:23.589Z,9.95
2022-10-23T19:01:27.563Z,9.85
2022-10-23T19:06:31.453Z,9.25
2022-10-23T19:11:34.124Z,10.80
2022-10-23T19:17:08.346Z,9.43
2022-10-23T19:22:12.398Z,10.05
2022-10-23T19:27:15.195Z,10.15
2022-10-23T19:32:18.074Z,9.07
2022-10-23T19:37:20.686Z,10.25
2022-10-23T19:42:23.302Z,10.20
2022-10-23T19:47:25.844Z,9.10
2022-10-23T19:52:28.824Z,9.32
2022-10-23T19:57:34.020Z,9.75
2022-10-23T20:07:47.780Z,13.43
2022-10-23T20:12:56.527Z,9.18
2022-10-23T20:18:05.940Z,8.45
2022-10-23T20:23:09.542Z,9.30
2022-10-23T20:28:15.161Z,9.23
2022-10-23T20:33:18.843Z,9.95
2022-10-23T20:38:22.940Z,9.88
2022-10-23T20:43:25.512Z,10.68
2022-10-23T20:48:28.187Z,11.05
2022-10-23T20:53:30.824Z,11.23
2022-10-23T20:58:34.046Z,9.98
2022-10-23T21:03:37.426Z,10.43
2022-10-23T21:08:40.937Z,11.27
2022-10-23T21:13:44.589Z,10.18
2022-10-23T21:18:47.721Z,10.70
2022-10-23T21:23:52.956Z,10.50
2022-10-23T21:29:16.927Z,10.77
2022-10-23T21:34:19.021Z,10.73
2022-10-23T21:39:21.536Z,12.07
2022-10-23T21:44:24.210Z,11.25
2022-10-23T21:49:26.865Z,11.50
2022-10-23T21:54:29.463Z,12.43
2022-10-23T21:59:34.812Z,12.65
2022-10-23T22:04:39.460Z,11.13
2022-10-23T22:09:42.853Z,11.57
2022-10-23T22:14:45.547Z,10.55
2022-10-23T22:19:48.128Z,11.75
2022-10-23T22:24:50.701Z,10.73
2022-10-23T22:29:53.861Z,11.07
2022-10-23T22:34:56.541Z,10.95
2022-10-23T22:40:00.189Z,10.57
2022-10-23T22:45:02.764Z,10.30
2022-10-23T22:50:06.745Z,11.18
2022-10-23T22:55:10.076Z,10.25
2022-10-23T23:00:12.997Z,9.90
2022-10-23T23:05:15.514Z,9.85
2022-10-23T23:10:18.038Z,10.20
2022-10-23T23:15:20.621Z,9.77
2022-10-23T23:20:23.155Z,9.65
2022-10-23T23:25:25.680Z,9.48
2022-10-23T23:30:28.302Z,10.35
2022-10-23T23:35:30.937Z,9.40
2022-10-23T23:40:33.781Z,9.32
2022-10-23T23:45:36.292Z,9.63
2022-10-23T23:50:38.897Z,9.38
2022-10-23T23:55:41.514Z,9.27
